createdAt,value
2018-02-12T00:00:22.230Z,3.57
2018-02-12T00:01:22.187Z,3.55
2018-02-12T00:02:22.202Z,3.56
2018-02-12T00:03:22.188Z,3.56
2018-02-12T00:04:22.182Z,3.58
2018-02-12T00:05:22.181Z,3.56
2018-02-12T00:06:22.170Z,3.56
2018-02-12T00:07:22.232Z,3.55
2018-02-12T00:08:22.176Z,3.54
2018-02-12T00:09:22.201Z,3.54
2018-02-12T00:10:22.171Z,3.54
2018-02-12T00:11:22.166Z,3.54
2018-02-12T00:12:22.218Z,3.54
2018-02-12T00:13:22.167Z,3.54
2018-02-12T00:14:22.184Z,3.55
2018-02-12T00:15:22.167Z,3.5
2018-02-12T00:16:22.172Z,3.5
2018-02-12T00:17:22.201Z,3.51
2018-02-12T00:18:22.186Z,3.5
2018-02-12T00:19:22.441Z,3.52
2018-02-12T00:20:22.404Z,3.48
2018-02-12T00:21:22.419Z,3.49
2018-02-12T00:22:22.437Z,3.48
2018-02-12T00:23:22.412Z,3.45
2018-02-12T00:24:22.416Z,3.47
2018-02-12T00:25:22.414Z,3.47
2018-02-12T00:26:22.449Z,3.45
2018-02-12T00:27:22.428Z,3.43
2018-02-12T00:28:22.420Z,3.43
2018-02-12T00:29:22.423Z,3.43
2018-02-12T00:30:22.433Z,3.47
2018-02-12T00:31:22.450Z,3.44
2018-02-12T00:34:22.439Z,3.47
2018-02-12T00:35:22.446Z,3.44
2018-02-12T00:36:22.427Z,3.48
2018-02-12T00:37:22.444Z,3.47
2018-02-12T00:38:22.424Z,3.44
2018-02-12T00:39:22.462Z,3.48
2018-02-12T00:40:22.423Z,3.44
2018-02-12T00:41:22.430Z,3.47
2018-02-12T00:42:22.438Z,3.44
2018-02-12T00:43:22.414Z,3.43
2018-02-12T00:44:22.434Z,3.43
2018-02-12T00:45:22.435Z,3.43
2018-02-12T00:46:22.421Z,3.42
2018-02-12T00:47:22.428Z,3.41
2018-02-12T00:48:22.476Z,3.43
2018-02-12T00:49:22.688Z,3.42
2018-02-12T00:50:22.711Z,3.39
2018-02-12T00:51:22.704Z,3.35
2018-02-12T00:52:22.691Z,3.4
2018-02-12T00:53:22.686Z,3.38
2018-02-12T00:54:22.679Z,3.37
2018-02-12T00:55:22.700Z,3.37
2018-02-12T00:56:22.708Z,3.37
2018-02-12T00:59:30.046Z,3.37
2018-02-12T01:00:22.713Z,3.33
2018-02-12T01:01:22.700Z,3.37
2018-02-12T01:02:22.752Z,3.33
2018-02-12T01:03:22.726Z,3.31
2018-02-12T01:04:22.689Z,3.31
2018-02-12T01:05:22.710Z,3.31
2018-02-12T01:06:23.261Z,3.31
2018-02-12T01:07:22.696Z,3.31
2018-02-12T01:08:22.837Z,3.29
2018-02-12T01:09:22.696Z,3.28
2018-02-12T01:10:22.702Z,3.28
2018-02-12T01:11:22.699Z,3.29
2018-02-12T01:12:22.735Z,3.25
2018-02-12T01:13:22.743Z,3.25
2018-02-12T01:14:22.713Z,3.24
2018-02-12T01:15:22.704Z,3.23
2018-02-12T01:16:22.683Z,3.22
2018-02-12T01:17:22.722Z,3.19
2018-02-12T01:18:22.728Z,3.19
2018-02-12T01:19:22.978Z,3.19
2018-02-12T01:20:22.955Z,3.2
2018-02-12T01:21:22.974Z,3.18
2018-02-12T01:22:22.986Z,3.17
2018-02-12T01:23:22.984Z,3.14
2018-02-12T01:24:22.945Z,3.17
2018-02-12T01:25:22.952Z,3.14
2018-02-12T01:26:22.980Z,3.13
2018-02-12T01:27:22.963Z,3.17
2018-02-12T01:28:22.971Z,3.12
2018-02-12T01:29:22.965Z,3.14
2018-02-12T01:30:22.976Z,3.14
2018-02-12T01:31:23.011Z,3.13
2018-02-12T01:32:23.989Z,3.13
2018-02-12T01:33:22.971Z,3.14
2018-02-12T01:34:22.974Z,3.11
2018-02-12T01:35:22.971Z,3.1
2018-02-12T01:36:23.002Z,3.07
2018-02-12T01:37:22.956Z,3.06
2018-02-12T01:38:23.248Z,3
2018-02-12T01:39:22.982Z,3.04
2018-02-12T01:40:22.979Z,3.03
2018-02-12T01:41:22.969Z,3
2018-02-12T01:42:22.967Z,3.03
2018-02-12T01:43:22.999Z,3
2018-02-12T01:44:22.957Z,3.03
2018-02-12T01:45:23.010Z,3
2018-02-12T01:46:22.962Z,2.99
2018-02-12T01:47:23.003Z,2.96
2018-02-12T01:48:22.949Z,2.94
2018-02-12T01:49:22.211Z,2.93
2018-02-12T01:50:22.182Z,2.92
2018-02-12T01:51:22.225Z,2.88
2018-02-12T01:52:22.185Z,2.92
2018-02-12T01:53:22.192Z,2.87
2018-02-12T01:54:22.197Z,2.82
2018-02-12T01:55:22.207Z,2.8
2018-02-12T01:56:22.175Z,2.8
2018-02-12T01:57:22.177Z,2.8
2018-02-12T01:58:22.196Z,2.81
2018-02-12T01:59:22.172Z,2.8
2018-02-12T02:00:25.204Z,2.73
2018-02-12T02:01:22.182Z,2.72
2018-02-12T02:02:27.831Z,2.68
2018-02-12T02:03:22.176Z,2.67
2018-02-12T02:04:22.316Z,2.66
2018-02-12T02:05:22.614Z,2.61
2018-02-12T02:06:24.080Z,2.63
2018-02-12T02:07:23.316Z,2.61
2018-02-12T02:08:25.020Z,2.61
2018-02-12T02:09:24.077Z,2.62
2018-02-12T02:10:22.184Z,2.57
2018-02-12T02:11:23.919Z,2.63
2018-02-12T02:12:24.390Z,2.62
2018-02-12T02:13:22.184Z,2.57
2018-02-12T02:14:22.212Z,2.57
2018-02-12T02:15:22.178Z,2.58
2018-02-12T02:16:22.181Z,2.6
2018-02-12T02:17:23.392Z,2.57
2018-02-12T02:18:22.191Z,2.61
2018-02-12T02:19:25.683Z,2.56
2018-02-12T02:20:23.388Z,2.56
2018-02-12T02:21:23.211Z,2.56
2018-02-12T02:22:24.105Z,2.54
2018-02-12T02:23:22.923Z,2.55
2018-02-12T02:24:26.224Z,2.53
2018-02-12T02:25:22.913Z,2.55
2018-02-12T02:26:22.917Z,2.52
2018-02-12T02:27:22.923Z,2.51
2018-02-12T02:28:23.448Z,2.51
2018-02-12T02:29:22.939Z,2.56
2018-02-12T02:30:26.127Z,2.56
2018-02-12T02:31:22.936Z,2.55
2018-02-12T02:32:22.927Z,2.53
2018-02-12T02:33:24.755Z,2.55
2018-02-12T02:34:22.980Z,2.57
2018-02-12T02:35:23.822Z,2.57
2018-02-12T02:36:24.008Z,2.56
2018-02-12T02:37:22.907Z,2.57
2018-02-12T02:38:25.386Z,2.57
2018-02-12T02:39:22.955Z,2.58
2018-02-12T02:40:22.961Z,2.57
2018-02-12T02:41:22.936Z,2.56
2018-02-12T02:42:22.929Z,2.57
2018-02-12T02:43:22.976Z,2.57
2018-02-12T02:44:31.692Z,2.57
2018-02-12T02:45:24.737Z,2.58
2018-02-12T02:46:24.298Z,2.58
2018-02-12T02:47:22.934Z,2.58
2018-02-12T02:48:24.022Z,2.61
2018-02-12T02:49:22.921Z,2.62
2018-02-12T02:50:22.956Z,2.61
2018-02-12T02:51:22.221Z,2.57
2018-02-12T02:52:22.206Z,2.61
2018-02-12T02:53:22.219Z,2.57
2018-02-12T02:54:22.932Z,2.57
2018-02-12T02:55:22.227Z,2.57
2018-02-12T02:56:26.764Z,2.56
2018-02-12T02:57:23.175Z,2.56
2018-02-12T02:58:22.206Z,2.57
2018-02-12T02:59:24.880Z,2.56
2018-02-12T03:00:24.127Z,2.56
2018-02-12T03:01:24.220Z,2.57
2018-02-12T03:02:22.218Z,2.54
2018-02-12T03:03:28.186Z,2.57
2018-02-12T03:04:22.223Z,2.57
2018-02-12T03:05:24.070Z,2.55
2018-02-12T03:06:29.967Z,2.55
2018-02-12T03:07:27.452Z,2.55
2018-02-12T03:08:25.643Z,2.52
2018-02-12T03:09:22.206Z,2.5
2018-02-12T03:10:22.519Z,2.54
2018-02-12T03:11:22.211Z,2.52
2018-02-12T03:13:22.232Z,2.52
2018-02-12T03:14:22.219Z,2.55
2018-02-12T03:15:26.058Z,2.52
2018-02-12T03:16:22.261Z,2.53
2018-02-12T03:17:23.962Z,2.51
2018-02-12T03:18:22.203Z,2.52
2018-02-12T03:19:23.596Z,2.51
2018-02-12T03:20:22.209Z,2.54
2018-02-12T03:21:22.338Z,2.5
2018-02-12T03:22:22.579Z,2.5
2018-02-12T03:23:22.572Z,2.5
2018-02-12T03:24:23.232Z,2.49
2018-02-12T03:25:22.571Z,2.46
2018-02-12T03:26:22.973Z,2.48
2018-02-12T03:27:22.577Z,2.46
2018-02-12T03:28:22.550Z,2.44
2018-02-12T03:29:24.141Z,2.44
2018-02-12T03:30:27.104Z,2.47
2018-02-12T03:31:31.731Z,2.5
2018-02-12T03:32:22.593Z,2.51
2018-02-12T03:33:24.645Z,2.5
2018-02-12T03:34:22.592Z,2.51
2018-02-12T03:35:25.247Z,2.52
2018-02-12T03:36:25.525Z,2.52
2018-02-12T03:37:22.572Z,2.55
2018-02-12T03:38:26.316Z,2.53
2018-02-12T03:39:22.855Z,2.57
2018-02-12T03:40:22.584Z,2.57
2018-02-12T03:41:22.597Z,2.59
2018-02-12T03:42:22.561Z,2.61
2018-02-12T03:43:22.567Z,2.58
2018-02-12T03:44:23.449Z,2.61
2018-02-12T03:45:22.564Z,2.57
2018-02-12T03:46:25.361Z,2.63
2018-02-12T03:47:22.594Z,2.63
2018-02-12T03:48:25.598Z,2.63
2018-02-12T03:49:29.484Z,2.63
2018-02-12T03:50:23.457Z,2.63
2018-02-12T03:51:22.571Z,2.63
2018-02-12T03:52:24.215Z,2.63
2018-02-12T03:53:24.154Z,2.66
2018-02-12T03:54:22.835Z,2.63
2018-02-12T03:55:22.852Z,2.63
2018-02-12T03:56:22.809Z,2.64
2018-02-12T03:57:22.821Z,2.64
2018-02-12T03:58:23.441Z,2.65
2018-02-12T03:59:22.815Z,2.67
2018-02-12T04:00:24.147Z,2.64
2018-02-12T04:01:27.127Z,2.68
2018-02-12T04:02:22.834Z,2.64
2018-02-12T04:03:22.812Z,2.67
2018-02-12T04:04:22.829Z,2.63
2018-02-12T04:05:22.850Z,2.6
2018-02-12T04:06:22.826Z,2.57
2018-02-12T04:07:22.814Z,2.56
2018-02-12T04:08:34.004Z,2.55
2018-02-12T04:09:22.804Z,2.55
2018-02-12T04:10:24.477Z,2.55
2018-02-12T04:11:22.826Z,2.51
2018-02-12T04:12:32.130Z,2.44
2018-02-12T04:13:22.877Z,2.43
2018-02-12T04:14:22.940Z,2.43
2018-02-12T04:15:23.170Z,2.43
2018-02-12T04:16:24.464Z,2.41
2018-02-12T04:17:22.828Z,2.36
2018-02-12T04:18:22.845Z,2.32
2018-02-12T04:19:25.750Z,2.26
2018-02-12T04:20:22.847Z,2.26
2018-02-12T04:21:22.829Z,2.23
2018-02-12T04:22:23.074Z,2.17
2018-02-12T04:23:23.076Z,2.17
2018-02-12T04:24:23.062Z,2.13
2018-02-12T04:25:23.124Z,2.14
2018-02-12T04:26:23.110Z,2.11
2018-02-12T04:27:23.511Z,2.08
2018-02-12T04:28:23.067Z,2.06
2018-02-12T04:29:23.084Z,2.06
2018-02-12T04:30:23.083Z,2.02
2018-02-12T04:31:23.191Z,2.01
2018-02-12T04:32:24.519Z,2.04
2018-02-12T04:33:27.626Z,2.01
2018-02-12T04:34:27.820Z,2.01
2018-02-12T04:35:25.803Z,2.01
2018-02-12T04:36:23.457Z,2.02
2018-02-12T04:37:23.102Z,2.01
2018-02-12T04:38:24.456Z,1.97
2018-02-12T04:39:23.099Z,1.99
2018-02-12T04:40:23.111Z,1.97
2018-02-12T04:41:23.139Z,1.97
2018-02-12T04:42:23.079Z,1.99
2018-02-12T04:43:30.138Z,1.92
2018-02-12T04:44:23.046Z,1.92
2018-02-12T04:45:23.101Z,1.9
2018-02-12T04:46:23.064Z,1.93
2018-02-12T04:47:23.081Z,1.89
2018-02-12T04:48:23.065Z,1.88
2018-02-12T04:49:23.420Z,1.88
2018-02-12T04:50:23.090Z,1.86
2018-02-12T04:51:24.670Z,1.87
2018-02-12T04:52:24.497Z,1.86
2018-02-12T04:53:22.267Z,1.85
2018-02-12T04:54:22.281Z,1.87
2018-02-12T04:55:22.289Z,1.85
2018-02-12T04:56:22.272Z,1.83
2018-02-12T04:57:27.718Z,1.83
2018-02-12T04:58:22.278Z,1.81
2018-02-12T04:59:22.281Z,1.85
2018-02-12T05:00:22.572Z,1.85
2018-02-12T05:01:22.289Z,1.83
2018-02-12T05:02:24.477Z,1.84
2018-02-12T05:03:25.537Z,1.87
2018-02-12T05:04:22.266Z,1.84
2018-02-12T05:05:22.325Z,1.83
2018-02-12T05:06:22.277Z,1.85
2018-02-12T05:07:27.987Z,1.88
2018-02-12T05:08:24.125Z,1.85
2018-02-12T05:09:24.304Z,1.87
2018-02-12T05:10:22.278Z,1.88
2018-02-12T05:11:26.013Z,1.9
2018-02-12T05:12:22.321Z,1.9
2018-02-12T05:13:23.219Z,1.88
2018-02-12T05:14:24.235Z,1.88
2018-02-12T05:15:22.474Z,1.88
2018-02-12T05:16:22.289Z,1.9
2018-02-12T05:17:24.359Z,1.89
2018-02-12T05:18:22.292Z,1.9
2018-02-12T05:19:22.293Z,1.93
2018-02-12T05:20:22.273Z,1.93
2018-02-12T05:22:22.277Z,1.89
2018-02-12T05:23:42.001Z,1.92
2018-02-12T05:24:41.844Z,1.88
2018-02-12T05:25:41.833Z,1.87
2018-02-12T05:26:41.851Z,1.86
2018-02-12T05:27:41.826Z,1.83
2018-02-12T05:28:41.859Z,1.86
2018-02-12T05:29:42.506Z,1.86
2018-02-12T05:30:41.831Z,1.88
2018-02-12T05:31:43.927Z,1.88
2018-02-12T05:32:44.385Z,1.87
2018-02-12T05:33:45.977Z,1.89
2018-02-12T05:34:41.844Z,1.88
2018-02-12T05:35:41.822Z,1.92
2018-02-12T05:36:43.112Z,1.9
2018-02-12T05:37:42.084Z,1.93
2018-02-12T05:38:46.272Z,1.89
2018-02-12T05:39:41.865Z,1.9
2018-02-12T05:40:41.829Z,1.91
2018-02-12T05:42:44.631Z,1.93
2018-02-12T05:43:41.859Z,1.95
2018-02-12T05:44:41.834Z,1.95
2018-02-12T05:45:41.842Z,1.94
2018-02-12T05:46:41.872Z,1.95
2018-02-12T05:47:41.820Z,1.94
2018-02-12T05:48:41.824Z,1.94
2018-02-12T05:49:41.857Z,1.89
2018-02-12T05:50:41.873Z,1.93
2018-02-12T05:51:43.460Z,1.92
2018-02-12T05:52:45.596Z,1.94
2018-02-12T05:53:45.649Z,1.89
2018-02-12T05:54:41.927Z,1.89
2018-02-12T05:55:41.883Z,1.86
2018-02-12T05:56:44.707Z,1.87
2018-02-12T05:57:44.408Z,1.88
2018-02-12T05:58:41.894Z,1.87
2018-02-12T05:59:41.882Z,1.88
2018-02-12T06:00:41.905Z,1.89
2018-02-12T06:01:41.889Z,1.89
2018-02-12T06:02:41.890Z,1.89
2018-02-12T06:03:43.954Z,1.87
2018-02-12T06:04:41.902Z,1.86
2018-02-12T06:05:45.276Z,1.86
2018-02-12T06:06:44.980Z,1.84
2018-02-12T06:07:41.906Z,1.87
2018-02-12T06:08:45.614Z,1.85
2018-02-12T06:09:44.907Z,1.87
2018-02-12T06:10:43.904Z,1.87
2018-02-12T06:11:45.006Z,1.88
2018-02-12T06:12:41.875Z,1.86
2018-02-12T06:13:41.881Z,1.83
2018-02-12T06:14:41.892Z,1.82
2018-02-12T06:15:41.900Z,1.82
2018-02-12T06:16:41.917Z,1.83
2018-02-12T06:17:41.906Z,1.86
2018-02-12T06:18:41.878Z,1.88
2018-02-12T06:19:41.943Z,1.88
2018-02-12T06:20:41.881Z,1.88
2018-02-12T06:21:41.899Z,1.93
2018-02-12T06:22:41.932Z,1.93
2018-02-12T06:23:41.913Z,1.97
2018-02-12T06:24:41.924Z,1.95
2018-02-12T06:25:42.170Z,1.94
2018-02-12T06:26:42.138Z,1.98
2018-02-12T06:27:42.183Z,1.95
2018-02-12T06:28:42.217Z,1.98
2018-02-12T06:29:42.168Z,1.97
2018-02-12T06:30:42.183Z,1.98
2018-02-12T06:31:42.153Z,2
2018-02-12T06:32:42.164Z,2
2018-02-12T06:33:42.184Z,2
2018-02-12T06:34:42.195Z,2.03
2018-02-12T06:35:42.172Z,2.01
2018-02-12T06:36:42.234Z,2.01
2018-02-12T06:37:42.359Z,2.01
2018-02-12T06:38:42.240Z,2.04
2018-02-12T06:39:42.139Z,2.03
2018-02-12T06:40:42.148Z,2.02
2018-02-12T06:41:42.168Z,2.01
2018-02-12T06:42:42.168Z,2.03
2018-02-12T06:43:42.183Z,2.05
2018-02-12T06:44:42.165Z,2.05
2018-02-12T06:45:42.140Z,2.05
2018-02-12T06:46:42.181Z,2.02
2018-02-12T06:47:42.154Z,2.06
2018-02-12T06:48:42.177Z,2.06
2018-02-12T06:49:42.137Z,2.04
2018-02-12T06:50:42.176Z,2.02
2018-02-12T06:51:42.138Z,2.04
2018-02-12T06:52:42.150Z,2.06
2018-02-12T06:53:42.140Z,2.02
2018-02-12T06:54:42.207Z,2.05
2018-02-12T06:55:41.453Z,2.02
2018-02-12T06:56:41.442Z,2.05
2018-02-12T06:57:41.434Z,2.06
2018-02-12T06:58:41.439Z,2.06
2018-02-12T06:59:41.460Z,2.02
2018-02-12T07:00:41.443Z,2.04
2018-02-12T07:01:41.461Z,2.02
2018-02-12T07:02:41.447Z,2.02
2018-02-12T07:03:41.452Z,2.03
2018-02-12T07:04:41.438Z,2.01
2018-02-12T07:05:41.680Z,2
2018-02-12T07:06:41.448Z,2
2018-02-12T07:07:41.434Z,2
2018-02-12T07:08:41.451Z,2
2018-02-12T07:09:41.552Z,2.05
2018-02-12T07:10:41.450Z,2.01
2018-02-12T07:11:41.605Z,2.02
2018-02-12T07:12:41.538Z,2.01
2018-02-12T07:13:41.553Z,2.04
2018-02-12T07:14:41.422Z,2.02
2018-02-12T07:15:41.501Z,2.05
2018-02-12T07:16:41.449Z,2.06
2018-02-12T07:17:41.646Z,2.03
2018-02-12T07:18:41.443Z,2.01
2018-02-12T07:19:41.870Z,2
2018-02-12T07:20:41.462Z,2
2018-02-12T07:21:41.455Z,2.04
2018-02-12T07:22:41.540Z,2
2018-02-12T07:23:41.446Z,1.99
2018-02-12T07:24:41.771Z,2
2018-02-12T07:25:41.450Z,2
2018-02-12T07:26:41.679Z,1.99
2018-02-12T07:27:42.072Z,1.99
2018-02-12T07:28:41.694Z,2
2018-02-12T07:29:41.732Z,1.99
2018-02-12T07:30:41.677Z,2
2018-02-12T07:31:41.697Z,1.97
2018-02-12T07:32:41.750Z,2
2018-02-12T07:33:41.714Z,2.01
2018-02-12T07:34:41.699Z,2.01
2018-02-12T07:35:41.696Z,1.96
2018-02-12T07:36:41.692Z,1.98
2018-02-12T07:37:41.776Z,1.91
2018-02-12T07:38:41.677Z,1.88
2018-02-12T07:39:41.667Z,1.85
2018-02-12T07:40:41.763Z,1.86
2018-02-12T07:41:42.255Z,1.85
2018-02-12T07:42:41.819Z,1.74
2018-02-12T07:43:41.718Z,1.73
2018-02-12T07:44:42.264Z,1.69
2018-02-12T07:45:41.702Z,1.69
2018-02-12T07:46:41.690Z,1.63
2018-02-12T07:47:42.314Z,1.62
2018-02-12T07:48:41.685Z,1.62
2018-02-12T07:49:43.774Z,1.58
2018-02-12T07:50:42.034Z,1.56
2018-02-12T07:51:41.698Z,1.55
2018-02-12T07:52:42.180Z,1.5
2018-02-12T07:53:41.686Z,1.45
2018-02-12T07:54:41.715Z,1.44
2018-02-12T07:55:41.701Z,1.42
2018-02-12T07:56:41.950Z,1.38
2018-02-12T07:57:41.951Z,1.38
2018-02-12T07:58:41.957Z,1.32
2018-02-12T07:59:41.961Z,1.35
2018-02-12T08:00:41.987Z,1.33
2018-02-12T08:01:41.995Z,1.32
2018-02-12T08:02:41.959Z,1.32
2018-02-12T08:03:42.026Z,1.32
2018-02-12T08:04:41.995Z,1.32
2018-02-12T08:05:42.507Z,1.29
2018-02-12T08:06:43.230Z,1.26
2018-02-12T08:07:41.993Z,1.26
2018-02-12T08:08:43.128Z,1.24
2018-02-12T08:09:42.048Z,1.24
2018-02-12T08:10:41.942Z,1.2
2018-02-12T08:11:42.106Z,1.2
2018-02-12T08:12:43.241Z,1.2
2018-02-12T08:13:41.959Z,1.22
2018-02-12T08:14:42.233Z,1.24
2018-02-12T08:15:41.947Z,1.23
2018-02-12T08:16:41.947Z,1.23
2018-02-12T08:17:41.961Z,1.26
2018-02-12T08:18:41.922Z,1.26
2018-02-12T08:19:41.961Z,1.26
2018-02-12T08:20:41.957Z,1.26
2018-02-12T08:21:41.962Z,1.32
2018-02-12T08:22:41.955Z,1.34
2018-02-12T08:23:41.927Z,1.34
2018-02-12T08:24:41.984Z,1.34
2018-02-12T08:25:41.943Z,1.4
2018-02-12T08:26:41.247Z,1.41
2018-02-12T08:27:41.259Z,1.46
2018-02-12T08:28:41.263Z,1.45
2018-02-12T08:29:41.241Z,1.44
2018-02-12T08:30:41.261Z,1.39
2018-02-12T08:31:41.234Z,1.44
2018-02-12T08:32:41.261Z,1.46
2018-02-12T08:33:41.252Z,1.47
2018-02-12T08:34:41.254Z,1.46
2018-02-12T08:35:41.268Z,1.49
2018-02-12T08:36:41.273Z,1.53
2018-02-12T08:37:41.235Z,1.55
2018-02-12T08:38:41.304Z,1.6
2018-02-12T08:39:41.309Z,1.59
2018-02-12T08:40:41.338Z,1.64
2018-02-12T08:41:41.239Z,1.63
2018-02-12T08:42:41.298Z,1.65
2018-02-12T08:43:41.246Z,1.65
2018-02-12T08:44:41.301Z,1.69
2018-02-12T08:45:41.263Z,1.71
2018-02-12T08:46:41.307Z,1.75
2018-02-12T08:47:41.311Z,1.74
2018-02-12T08:48:41.238Z,1.76
2018-02-12T08:49:41.235Z,1.76
2018-02-12T08:50:41.268Z,1.8
2018-02-12T08:51:41.270Z,1.79
2018-02-12T08:52:41.284Z,1.83
2018-02-12T08:53:41.238Z,1.85
2018-02-12T08:54:41.269Z,1.88
2018-02-12T08:55:41.299Z,1.87
2018-02-12T08:56:41.252Z,1.87
2018-02-12T08:57:41.478Z,1.89
2018-02-12T08:58:41.555Z,1.86
2018-02-12T08:59:41.479Z,1.88
2018-02-12T09:00:41.495Z,1.91
2018-02-12T09:01:41.515Z,1.94
2018-02-12T09:02:41.503Z,1.97
2018-02-12T09:03:41.501Z,1.95
2018-02-12T09:04:41.482Z,1.97
2018-02-12T09:05:41.497Z,2.01
2018-02-12T09:06:41.475Z,2.01
2018-02-12T09:07:41.504Z,2.01
2018-02-12T09:08:41.553Z,2.03
2018-02-12T09:09:41.513Z,2.08
2018-02-12T09:10:41.535Z,2.08
2018-02-12T09:11:41.482Z,2.08
2018-02-12T09:12:41.504Z,2.08
2018-02-12T09:13:41.502Z,2.1
2018-02-12T09:14:41.478Z,2.13
2018-02-12T09:15:41.516Z,2.13
2018-02-12T09:16:41.530Z,2.14
2018-02-12T09:17:41.509Z,2.14
2018-02-12T09:18:41.512Z,2.18
2018-02-12T09:19:41.518Z,2.2
2018-02-12T09:20:41.491Z,2.22
2018-02-12T09:21:41.529Z,2.21
2018-02-12T09:22:41.514Z,2.25
2018-02-12T09:23:41.498Z,2.27
2018-02-12T09:24:41.519Z,2.3
2018-02-12T09:25:41.489Z,2.32
2018-02-12T09:26:41.509Z,2.33
2018-02-12T09:27:41.829Z,2.33
2018-02-12T09:28:41.854Z,2.35
2018-02-12T09:29:41.842Z,2.38
2018-02-12T09:30:41.844Z,2.38
2018-02-12T09:31:41.877Z,2.4
2018-02-12T09:32:41.901Z,2.4
2018-02-12T09:33:41.864Z,2.44
2018-02-12T09:34:41.830Z,2.44
2018-02-12T09:35:41.868Z,2.48
2018-02-12T09:36:41.887Z,2.45
2018-02-12T09:37:41.870Z,2.49
2018-02-12T09:38:41.847Z,2.47
2018-02-12T09:39:41.838Z,2.49
2018-02-12T09:40:41.900Z,2.45
2018-02-12T09:41:41.863Z,2.49
2018-02-12T09:42:41.849Z,2.49
2018-02-12T09:43:41.830Z,2.49
2018-02-12T09:44:41.891Z,2.5
2018-02-12T09:45:41.865Z,2.51
2018-02-12T09:46:41.824Z,2.52
2018-02-12T09:47:41.848Z,2.51
2018-02-12T09:48:41.854Z,2.55
2018-02-12T09:49:41.872Z,2.56
2018-02-12T09:50:41.856Z,2.57
2018-02-12T09:51:41.890Z,2.61
2018-02-12T09:52:34.207Z,2.61
2018-02-12T09:53:34.089Z,2.64
2018-02-12T09:54:34.098Z,2.67
2018-02-12T09:55:34.130Z,2.65
2018-02-12T09:56:34.136Z,2.7
2018-02-12T09:57:34.119Z,2.69
2018-02-12T09:58:34.101Z,2.7
2018-02-12T09:59:34.109Z,2.71
2018-02-12T10:00:34.122Z,2.77
2018-02-12T10:01:34.239Z,2.77
2018-02-12T10:02:34.126Z,2.78
2018-02-12T10:03:34.114Z,2.8
2018-02-12T10:04:34.108Z,2.82
2018-02-12T10:05:34.096Z,2.86
2018-02-12T10:06:34.215Z,2.85
2018-02-12T10:07:41.374Z,2.92
2018-02-12T10:08:35.668Z,2.88
2018-02-12T10:09:39.968Z,2.88
2018-02-12T10:10:41.456Z,2.94
2018-02-12T10:11:39.827Z,2.95
2018-02-12T10:12:41.247Z,3
2018-02-12T10:13:42.698Z,3.01
2018-02-12T10:14:47.202Z,3.05
2018-02-12T10:15:39.481Z,3.08
2018-02-12T10:16:40.894Z,3.11
2018-02-12T10:17:42.322Z,3.14
2018-02-12T10:18:42.727Z,3.17
2018-02-12T10:19:47.236Z,3.17
2018-02-12T10:20:39.461Z,3.17
2018-02-12T10:21:37.814Z,3.18
2018-02-12T10:22:42.398Z,3.24
2018-02-12T10:23:37.744Z,3.24
2018-02-12T10:24:42.150Z,3.24
2018-02-12T10:25:40.768Z,3.21
2018-02-12T10:26:41.992Z,3.24
2018-02-12T10:27:40.341Z,3.25
2018-02-12T10:28:41.798Z,3.25
2018-02-12T10:29:40.166Z,3.25
2018-02-12T10:30:38.655Z,3.23
2018-02-12T10:31:39.957Z,3.29
2018-02-12T10:32:41.711Z,3.25
2018-02-12T10:33:39.999Z,3.3
2018-02-12T10:34:44.285Z,3.31
2018-02-12T10:35:39.665Z,3.35
2018-02-12T10:36:47.152Z,3.37
2018-02-12T10:37:39.359Z,3.37
2018-02-12T10:38:40.813Z,3.37
2018-02-12T10:39:42.251Z,3.42
2018-02-12T10:40:37.552Z,3.37
2018-02-12T10:41:42.073Z,3.35
2018-02-12T10:42:40.535Z,3.35
2018-02-12T10:43:41.973Z,3.37
2018-02-12T10:44:40.358Z,3.37
2018-02-12T10:45:41.817Z,3.37
2018-02-12T10:46:42.207Z,3.41
2018-02-12T10:47:44.954Z,3.43
2018-02-12T10:48:42.012Z,3.47
2018-02-12T10:49:40.382Z,3.44
2018-02-12T10:50:41.820Z,3.36
2018-02-12T10:51:40.220Z,3.3
2018-02-12T10:52:41.617Z,3.23
2018-02-12T10:53:40.030Z,3.18
2018-02-12T10:54:41.440Z,3.23
2018-02-12T10:55:42.874Z,3.25
2018-02-12T10:56:47.517Z,3.31
2018-02-12T10:57:42.682Z,3.32
2018-02-12T10:58:41.096Z,3.31
2018-02-12T10:59:35.505Z,3.36
2018-02-12T11:00:35.495Z,3.33
2018-02-12T11:01:35.512Z,3.37
2018-02-12T11:02:36.197Z,3.33
2018-02-12T11:03:35.487Z,3.39
2018-02-12T11:04:35.536Z,3.37
2018-02-12T11:05:35.474Z,3.42
2018-02-12T11:06:35.360Z,3.42
2018-02-12T11:07:35.759Z,3.43
2018-02-12T11:08:35.424Z,3.45
2018-02-12T11:09:36.116Z,3.49
2018-02-12T11:10:35.885Z,3.44
2018-02-12T11:11:36.581Z,3.44
2018-02-12T11:12:36.645Z,3.44
2018-02-12T11:13:35.425Z,3.45
2018-02-12T11:14:37.313Z,3.49
2018-02-12T11:15:35.494Z,3.5
2018-02-12T11:16:35.617Z,3.5
2018-02-12T11:17:36.188Z,3.54
2018-02-12T11:18:35.564Z,3.54
2018-02-12T11:19:35.437Z,3.54
2018-02-12T11:20:35.872Z,3.54
2018-02-12T11:21:35.433Z,3.51
2018-02-12T11:22:35.441Z,3.56
2018-02-12T11:23:35.497Z,3.57
2018-02-12T11:24:36.444Z,3.62
2018-02-12T11:25:34.504Z,3.67
2018-02-12T11:26:34.457Z,3.68
2018-02-12T11:27:34.487Z,3.69
2018-02-12T11:28:36.000Z,3.72
2018-02-12T11:29:34.568Z,3.72
2018-02-12T11:30:34.452Z,3.76
2018-02-12T11:31:35.310Z,3.86
2018-02-12T11:32:34.590Z,3.86
2018-02-12T11:33:34.457Z,3.84
2018-02-12T11:34:34.597Z,3.85
2018-02-12T11:35:34.454Z,3.86
2018-02-12T11:36:34.448Z,3.86
2018-02-12T11:37:35.513Z,3.88
2018-02-12T11:38:34.475Z,3.86
2018-02-12T11:39:34.445Z,3.87
2018-02-12T11:40:34.494Z,3.86
2018-02-12T11:41:34.444Z,3.87
2018-02-12T11:42:35.953Z,3.84
2018-02-12T11:43:34.584Z,3.8
2018-02-12T11:44:34.507Z,3.83
2018-02-12T11:45:34.562Z,3.81
2018-02-12T11:46:34.477Z,3.88
2018-02-12T11:47:34.466Z,3.86
2018-02-12T11:48:34.581Z,3.8
2018-02-12T11:49:34.463Z,3.8
2018-02-12T11:50:34.495Z,3.73
2018-02-12T11:51:34.447Z,3.74
2018-02-12T11:52:34.591Z,3.73
2018-02-12T11:53:34.477Z,3.72
2018-02-12T11:54:34.444Z,3.71
2018-02-12T11:55:34.561Z,3.71
2018-02-12T11:56:34.572Z,3.74
2018-02-12T11:57:34.554Z,3.75
2018-02-12T11:58:34.561Z,3.75
2018-02-12T11:59:34.538Z,3.74
2018-02-12T12:00:34.521Z,3.73
2018-02-12T12:01:34.554Z,3.68
2018-02-12T12:02:34.545Z,3.72
2018-02-12T12:03:35.391Z,3.73
2018-02-12T12:04:34.530Z,3.73
2018-02-12T12:05:34.535Z,3.75
2018-02-12T12:06:34.543Z,3.82
2018-02-12T12:07:34.510Z,3.87
2018-02-12T12:08:34.556Z,3.89
2018-02-12T12:09:34.517Z,3.95
2018-02-12T12:10:34.520Z,3.99
2018-02-12T12:11:34.508Z,4
2018-02-12T12:12:34.554Z,4.01
2018-02-12T12:13:34.502Z,4.02
2018-02-12T12:14:34.502Z,3.99
2018-02-12T12:15:34.525Z,3.99
2018-02-12T12:16:34.512Z,4
2018-02-12T12:17:34.628Z,4.03
2018-02-12T12:18:34.511Z,4.02
2018-02-12T12:19:36.927Z,4.1
2018-02-12T12:20:34.508Z,4.14
2018-02-12T12:21:34.533Z,4.12
2018-02-12T12:22:34.501Z,4.17
2018-02-12T12:23:34.578Z,4.18
2018-02-12T12:24:34.538Z,4.19
2018-02-12T12:25:34.538Z,4.2
2018-02-12T12:26:34.523Z,4.22
2018-02-12T12:27:34.482Z,4.17
2018-02-12T12:28:34.514Z,4.15
2018-02-12T12:29:34.497Z,4.16
2018-02-12T12:30:34.487Z,4.16
2018-02-12T12:31:34.482Z,4.18
2018-02-12T12:32:34.485Z,4.16
2018-02-12T12:33:34.535Z,4.18
2018-02-12T12:34:34.834Z,4.2
2018-02-12T12:35:34.490Z,4.34
2018-02-12T12:36:34.473Z,4.37
2018-02-12T12:37:34.586Z,4.43
2018-02-12T12:38:34.628Z,4.39
2018-02-12T12:39:34.525Z,4.37
2018-02-12T12:40:34.495Z,4.37
2018-02-12T12:41:34.930Z,4.41
2018-02-12T12:42:34.489Z,4.45
2018-02-12T12:43:34.540Z,4.5
2018-02-12T12:44:34.501Z,4.56
2018-02-12T12:45:34.490Z,4.66
2018-02-12T12:46:34.491Z,4.69
2018-02-12T12:47:34.485Z,4.72
2018-02-12T12:48:34.491Z,4.74
2018-02-12T12:49:34.488Z,4.73
2018-02-12T12:50:34.468Z,4.84
2018-02-12T12:51:34.494Z,4.79
2018-02-12T12:52:34.495Z,4.8
2018-02-12T12:53:34.486Z,4.81
2018-02-12T12:54:34.524Z,4.84
2018-02-12T12:55:34.523Z,4.84
2018-02-12T12:56:34.507Z,4.68
2018-02-12T12:57:34.507Z,4.71
2018-02-12T12:58:34.504Z,4.73
2018-02-12T12:59:34.501Z,4.75
2018-02-12T13:00:34.518Z,4.75
2018-02-12T13:01:34.525Z,4.77
2018-02-12T13:02:34.520Z,4.85
2018-02-12T13:03:34.497Z,4.87
2018-02-12T13:04:34.515Z,4.87
2018-02-12T13:05:34.499Z,4.9
2018-02-12T13:06:34.518Z,4.89
2018-02-12T13:07:34.482Z,4.87
2018-02-12T13:08:34.585Z,4.84
2018-02-12T13:10:18.409Z,4.67
2018-02-12T13:11:18.037Z,4.62
2018-02-12T13:12:18.000Z,4.58
2018-02-12T13:13:19.671Z,4.55
2018-02-12T13:14:18.474Z,4.5
2018-02-12T13:15:18.061Z,4.51
2018-02-12T13:16:18.073Z,4.45
2018-02-12T13:17:18.072Z,4.41
2018-02-12T13:18:18.064Z,4.43
2018-02-12T13:19:18.017Z,4.39
2018-02-12T13:20:18.049Z,4.38
2018-02-12T13:21:18.099Z,4.33
2018-02-12T13:22:18.055Z,4.31
2018-02-12T13:23:17.990Z,4.31
2018-02-12T13:24:18.061Z,4.29
2018-02-12T13:25:18.743Z,4.32
2018-02-12T13:26:18.014Z,4.28
2018-02-12T13:27:18.015Z,4.29
2018-02-12T13:28:18.079Z,4.3
2018-02-12T13:29:18.014Z,4.31
2018-02-12T13:30:18.036Z,4.31